sensor_id;sensor_type;location;lat;lon;timestamp;pressure;altitude;pressure_sealevel;temperature;humidity
47080;BME280;33067;49.296;14.470;2024-03-02T00:01:29;95991.51;;;9.64;49.78
47080;BME280;33067;49.296;14.470;2024-03-02T00:03:54;95992.72;;;9.96;49.02
47080;BME280;33067;49.296;14.470;2024-03-02T00:06:20;95993.65;;;9.58;49.95
47080;BME280;33067;49.296;14.470;2024-03-02T00:08:46;95993.08;;;9.82;49.47
47080;BME280;33067;49.296;14.470;2024-03-02T00:11:11;95998.57;;;9.80;49.37
47080;BME280;33067;49.296;14.470;2024-03-02T00:13:37;95998.33;;;9.61;49.28
47080;BME280;33067;49.296;14.470;2024-03-02T00:16:02;96002.39;;;9.77;48.97
47080;BME280;33067;49.296;14.470;2024-03-02T00:18:34;96005.02;;;9.66;49.01
47080;BME280;33067;49.296;14.470;2024-03-02T00:20:54;96007.35;;;9.95;48.36
47080;BME280;33067;49.296;14.470;2024-03-02T00:23:18;96009.39;;;9.65;48.76
47080;BME280;33067;49.296;14.470;2024-03-02T00:25:46;96009.53;;;9.79;49.02
47080;BME280;33067;49.296;14.470;2024-03-02T00:28:16;96007.99;;;9.36;49.45
47080;BME280;33067;49.296;14.470;2024-03-02T00:30:50;96003.47;;;9.77;49.25
47080;BME280;33067;49.296;14.470;2024-03-02T00:33:00;96007.39;;;9.90;48.46
47080;BME280;33067;49.296;14.470;2024-03-02T00:35:25;96007.62;;;10.47;47.12
47080;BME280;33067;49.296;14.470;2024-03-02T00:37:50;96009.26;;;10.39;47.29
47080;BME280;33067;49.296;14.470;2024-03-02T00:40:16;96015.08;;;10.14;47.82
47080;BME280;33067;49.296;14.470;2024-03-02T00:42:41;96015.35;;;10.05;47.73
47080;BME280;33067;49.296;14.470;2024-03-02T00:45:08;96017.54;;;10.21;47.42
47080;BME280;33067;49.296;14.470;2024-03-02T00:47:31;96015.52;;;10.16;47.34
47080;BME280;33067;49.296;14.470;2024-03-02T00:49:57;96015.30;;;10.00;47.61
47080;BME280;33067;49.296;14.470;2024-03-02T00:52:24;96013.51;;;10.44;46.70
47080;BME280;33067;49.296;14.470;2024-03-02T00:54:48;96016.71;;;10.46;46.91
47080;BME280;33067;49.296;14.470;2024-03-02T00:57:14;96015.88;;;10.60;46.71
47080;BME280;33067;49.296;14.470;2024-03-02T00:59:38;96019.89;;;10.45;46.72
47080;BME280;33067;49.296;14.470;2024-03-02T01:02:04;96019.29;;;10.32;46.92
47080;BME280;33067;49.296;14.470;2024-03-02T01:04:29;96012.13;;;10.51;46.87
47080;BME280;33067;49.296;14.470;2024-03-02T01:06:54;96012.94;;;10.47;46.41
47080;BME280;33067;49.296;14.470;2024-03-02T01:09:20;96004.55;;;10.87;45.69
47080;BME280;33067;49.296;14.470;2024-03-02T01:11:45;96005.12;;;10.91;45.49
47080;BME280;33067;49.296;14.470;2024-03-02T01:14:11;96007.17;;;10.88;45.52
47080;BME280;33067;49.296;14.470;2024-03-02T01:16:35;96003.86;;;10.71;45.09
47080;BME280;33067;49.296;14.470;2024-03-02T01:19:01;96003.84;;;10.69;44.82
47080;BME280;33067;49.296;14.470;2024-03-02T01:21:26;96003.92;;;10.36;45.75
47080;BME280;33067;49.296;14.470;2024-03-02T01:23:52;96006.01;;;10.21;45.43
47080;BME280;33067;49.296;14.470;2024-03-02T01:26:17;96008.99;;;10.27;46.32
47080;BME280;33067;49.296;14.470;2024-03-02T01:28:42;96008.09;;;9.87;46.40
47080;BME280;33067;49.296;14.470;2024-03-02T01:31:08;96009.71;;;10.13;46.74
47080;BME280;33067;49.296;14.470;2024-03-02T01:33:33;96011.56;;;9.89;46.89
47080;BME280;33067;49.296;14.470;2024-03-02T01:35:58;96010.71;;;10.03;46.53
47080;BME280;33067;49.296;14.470;2024-03-02T01:38:24;96012.05;;;9.54;46.63
47080;BME280;33067;49.296;14.470;2024-03-02T01:40:49;96010.12;;;9.17;47.37
47080;BME280;33067;49.296;14.470;2024-03-02T01:43:15;96009.64;;;9.15;47.65
47080;BME280;33067;49.296;14.470;2024-03-02T01:45:40;96006.86;;;9.49;47.38
47080;BME280;33067;49.296;14.470;2024-03-02T01:48:07;96004.19;;;9.14;48.40
47080;BME280;33067;49.296;14.470;2024-03-02T01:50:32;96004.97;;;9.39;47.57
47080;BME280;33067;49.296;14.470;2024-03-02T01:52:58;96005.53;;;9.53;47.68
47080;BME280;33067;49.296;14.470;2024-03-02T01:55:23;96005.38;;;9.41;47.93
47080;BME280;33067;49.296;14.470;2024-03-02T01:57:49;96003.23;;;9.62;47.57
47080;BME280;33067;49.296;14.470;2024-03-02T02:00:15;96002.64;;;9.42;48.03
47080;BME280;33067;49.296;14.470;2024-03-02T02:02:39;96004.19;;;8.95;48.91
47080;BME280;33067;49.296;14.470;2024-03-02T02:05:05;96004.21;;;9.42;47.79
47080;BME280;33067;49.296;14.470;2024-03-02T02:07:30;96004.30;;;9.35;47.63
47080;BME280;33067;49.296;14.470;2024-03-02T02:09:55;96004.51;;;9.31;47.49
47080;BME280;33067;49.296;14.470;2024-03-02T02:12:21;96001.89;;;8.96;48.27
47080;BME280;33067;49.296;14.470;2024-03-02T02:14:48;95999.37;;;9.09;49.07
47080;BME280;33067;49.296;14.470;2024-03-02T02:17:12;96001.46;;;8.84;50.17
47080;BME280;33067;49.296;14.470;2024-03-02T02:19:38;96000.15;;;8.60;49.64
47080;BME280;33067;49.296;14.470;2024-03-02T02:22:03;96000.26;;;8.67;49.36
47080;BME280;33067;49.296;14.470;2024-03-02T02:24:29;95996.94;;;8.84;49.30
47080;BME280;33067;49.296;14.470;2024-03-02T02:26:54;95994.53;;;8.82;49.51
47080;BME280;33067;49.296;14.470;2024-03-02T02:29:20;95990.98;;;9.12;49.04
47080;BME280;33067;49.296;14.470;2024-03-02T02:31:45;95990.18;;;9.41;48.63
47080;BME280;33067;49.296;14.470;2024-03-02T02:34:10;95988.92;;;9.66;48.14
47080;BME280;33067;49.296;14.470;2024-03-02T02:36:38;95988.63;;;9.81;47.48
47080;BME280;33067;49.296;14.470;2024-03-02T02:39:03;95986.69;;;9.63;47.66
47080;BME280;33067;49.296;14.470;2024-03-02T02:41:26;95987.38;;;9.62;47.20
47080;BME280;33067;49.296;14.470;2024-03-02T02:43:52;95989.61;;;9.41;47.55
47080;BME280;33067;49.296;14.470;2024-03-02T02:46:17;95989.50;;;9.79;47.44
47080;BME280;33067;49.296;14.470;2024-03-02T02:48:42;95989.28;;;9.82;47.52
47080;BME280;33067;49.296;14.470;2024-03-02T02:51:08;95984.53;;;9.71;47.20
47080;BME280;33067;49.296;14.470;2024-03-02T02:53:33;95986.00;;;9.54;46.99
47080;BME280;33067;49.296;14.470;2024-03-02T02:55:59;95985.68;;;9.90;46.59
47080;BME280;33067;49.296;14.470;2024-03-02T02:58:25;95987.77;;;9.97;46.15
47080;BME280;33067;49.296;14.470;2024-03-02T03:00:50;95989.24;;;10.26;45.80
47080;BME280;33067;49.296;14.470;2024-03-02T03:03:16;95989.61;;;9.74;45.95
47080;BME280;33067;49.296;14.470;2024-03-02T03:05:41;95985.90;;;9.53;45.70
47080;BME280;33067;49.296;14.470;2024-03-02T03:08:06;95982.77;;;9.57;45.80
47080;BME280;33067;49.296;14.470;2024-03-02T03:13:01;95987.56;;;9.86;45.21
47080;BME280;33067;49.296;14.470;2024-03-02T03:15:27;95983.87;;;9.50;45.46
47080;BME280;33067;49.296;14.470;2024-03-02T03:17:53;95980.61;;;9.81;45.46
47080;BME280;33067;49.296;14.470;2024-03-02T03:20:18;95986.39;;;9.63;45.67
47080;BME280;33067;49.296;14.470;2024-03-02T03:22:43;95991.23;;;9.74;45.66
47080;BME280;33067;49.296;14.470;2024-03-02T03:25:08;95995.54;;;9.68;45.84
47080;BME280;33067;49.296;14.470;2024-03-02T03:27:34;95994.38;;;9.32;45.65
47080;BME280;33067;49.296;14.470;2024-03-02T03:30:00;95993.69;;;9.59;45.41
47080;BME280;33067;49.296;14.470;2024-03-02T03:32:25;95995.05;;;9.71;44.90
47080;BME280;33067;49.296;14.470;2024-03-02T03:34:51;95995.70;;;9.74;44.60
47080;BME280;33067;49.296;14.470;2024-03-02T03:37:17;95995.71;;;9.58;44.69
47080;BME280;33067;49.296;14.470;2024-03-02T03:39:43;95996.10;;;9.97;44.27
47080;BME280;33067;49.296;14.470;2024-03-02T03:42:07;95997.43;;;9.61;44.71
47080;BME280;33067;49.296;14.470;2024-03-02T03:44:33;95997.44;;;9.87;44.69
47080;BME280;33067;49.296;14.470;2024-03-02T03:46:58;96000.39;;;9.68;45.12
47080;BME280;33067;49.296;14.470;2024-03-02T03:49:23;96000.53;;;9.44;45.45
47080;BME280;33067;49.296;14.470;2024-03-02T03:51:49;95998.76;;;9.59;44.86
47080;BME280;33067;49.296;14.470;2024-03-02T03:54:14;95996.99;;;9.52;44.69
47080;BME280;33067;49.296;14.470;2024-03-02T03:56:40;95997.64;;;9.37;44.84
47080;BME280;33067;49.296;14.470;2024-03-02T03:59:05;95994.48;;;9.11;45.09
47080;BME280;33067;49.296;14.470;2024-03-02T04:01:31;95996.82;;;9.25;44.07
47080;BME280;33067;49.296;14.470;2024-03-02T04:03:56;96001.49;;;9.01;44.07
47080;BME280;33067;49.296;14.470;2024-03-02T04:06:22;96003.57;;;8.86;44.38
47080;BME280;33067;49.296;14.470;2024-03-02T04:08:47;96004.77;;;8.84;44.79
47080;BME280;33067;49.296;14.470;2024-03-02T04:11:12;96005.11;;;9.29;44.98
47080;BME280;33067;49.296;14.470;2024-03-02T04:13:38;96001.64;;;9.28;44.47
47080;BME280;33067;49.296;14.470;2024-03-02T04:16:04;95997.69;;;8.95;44.74
47080;BME280;33067;49.296;14.470;2024-03-02T04:18:29;95997.18;;;9.03;44.53
47080;BME280;33067;49.296;14.470;2024-03-02T04:20:54;95998.05;;;9.13;44.06
47080;BME280;33067;49.296;14.470;2024-03-02T04:23:20;95998.28;;;8.96;44.29
47080;BME280;33067;49.296;14.470;2024-03-02T04:25:46;96004.09;;;9.10;44.17
47080;BME280;33067;49.296;14.470;2024-03-02T04:28:11;96012.20;;;8.96;44.58
47080;BME280;33067;49.296;14.470;2024-03-02T04:30:36;96013.04;;;8.93;44.54
47080;BME280;33067;49.296;14.470;2024-03-02T04:33:02;96009.92;;;8.81;44.40
47080;BME280;33067;49.296;14.470;2024-03-02T04:35:28;96006.92;;;8.71;44.13
47080;BME280;33067;49.296;14.470;2024-03-02T04:37:53;96003.26;;;8.74;44.39
47080;BME280;33067;49.296;14.470;2024-03-02T04:40:18;96001.45;;;8.72;44.92
47080;BME280;33067;49.296;14.470;2024-03-02T04:42:44;96005.68;;;8.76;45.29
47080;BME280;33067;49.296;14.470;2024-03-02T04:45:09;96011.85;;;9.10;45.24
47080;BME280;33067;49.296;14.470;2024-03-02T04:47:35;96011.02;;;8.91;44.28
47080;BME280;33067;49.296;14.470;2024-03-02T04:50:01;96012.38;;;8.95;43.93
47080;BME280;33067;49.296;14.470;2024-03-02T04:52:26;96014.01;;;8.81;43.60
47080;BME280;33067;49.296;14.470;2024-03-02T04:54:51;96016.07;;;9.01;43.59
47080;BME280;33067;49.296;14.470;2024-03-02T04:57:16;96019.23;;;8.93;43.92
47080;BME280;33067;49.296;14.470;2024-03-02T04:59:42;96019.62;;;9.28;43.72
47080;BME280;33067;49.296;14.470;2024-03-02T05:02:07;96019.12;;;8.88;43.90
47080;BME280;33067;49.296;14.470;2024-03-02T05:04:33;96022.67;;;8.74;43.46
47080;BME280;33067;49.296;14.470;2024-03-02T05:06:59;96023.05;;;8.89;42.97
47080;BME280;33067;49.296;14.470;2024-03-02T05:09:24;96025.16;;;9.00;42.94
47080;BME280;33067;49.296;14.470;2024-03-02T05:11:49;96030.78;;;8.26;42.39
47080;BME280;33067;49.296;14.470;2024-03-02T05:14:14;96032.82;;;8.71;41.82
47080;BME280;33067;49.296;14.470;2024-03-02T05:16:39;96039.25;;;8.48;41.99
47080;BME280;33067;49.296;14.470;2024-03-02T05:19:04;96040.11;;;8.54;42.55
47080;BME280;33067;49.296;14.470;2024-03-02T05:21:30;96038.68;;;8.16;43.54
47080;BME280;33067;49.296;14.470;2024-03-02T05:23:55;96036.77;;;8.24;43.89
47080;BME280;33067;49.296;14.470;2024-03-02T05:26:21;96034.32;;;8.09;43.92
47080;BME280;33067;49.296;14.470;2024-03-02T05:28:46;96036.45;;;8.09;44.09
47080;BME280;33067;49.296;14.470;2024-03-02T05:31:15;96038.33;;;8.07;44.50
47080;BME280;33067;49.296;14.470;2024-03-02T05:33:37;96042.27;;;7.98;44.41
47080;BME280;33067;49.296;14.470;2024-03-02T05:36:03;96042.33;;;7.88;44.42
47080;BME280;33067;49.296;14.470;2024-03-02T05:38:28;96050.18;;;7.38;44.95
47080;BME280;33067;49.296;14.470;2024-03-02T05:40:53;96054.04;;;7.66;44.96
47080;BME280;33067;49.296;14.470;2024-03-02T05:43:18;96058.28;;;7.54;44.79
47080;BME280;33067;49.296;14.470;2024-03-02T05:45:43;96059.08;;;7.53;44.97
47080;BME280;33067;49.296;14.470;2024-03-02T05:48:09;96065.53;;;7.69;45.09
47080;BME280;33067;49.296;14.470;2024-03-02T05:50:35;96069.96;;;7.39;45.20
47080;BME280;33067;49.296;14.470;2024-03-02T05:53:00;96074.05;;;7.88;44.75
47080;BME280;33067;49.296;14.470;2024-03-02T05:55:25;96079.77;;;7.38;44.71
47080;BME280;33067;49.296;14.470;2024-03-02T05:57:50;96080.25;;;7.14;45.20
47080;BME280;33067;49.296;14.470;2024-03-02T06:00:16;96080.99;;;7.45;45.42
47080;BME280;33067;49.296;14.470;2024-03-02T06:02:41;96085.89;;;7.31;45.79
47080;BME280;33067;49.296;14.470;2024-03-02T06:05:06;96090.36;;;7.77;45.66
47080;BME280;33067;49.296;14.470;2024-03-02T06:07:31;96083.33;;;7.23;46.00
47080;BME280;33067;49.296;14.470;2024-03-02T06:09:57;96082.58;;;6.92;46.41
47080;BME280;33067;49.296;14.470;2024-03-02T06:12:23;96092.27;;;7.68;45.97
47080;BME280;33067;49.296;14.470;2024-03-02T06:14:48;96095.21;;;7.65;44.89
47080;BME280;33067;49.296;14.470;2024-03-02T06:17:14;96099.81;;;7.73;44.24
47080;BME280;33067;49.296;14.470;2024-03-02T06:19:39;96100.34;;;7.62;43.95
47080;BME280;33067;49.296;14.470;2024-03-02T06:22:05;96101.19;;;7.60;43.81
47080;BME280;33067;49.296;14.470;2024-03-02T06:24:30;96102.14;;;7.94;43.94
47080;BME280;33067;49.296;14.470;2024-03-02T06:26:55;96104.28;;;6.60;43.84
47080;BME280;33067;49.296;14.470;2024-03-02T06:29:21;96103.16;;;8.16;43.11
47080;BME280;33067;49.296;14.470;2024-03-02T06:31:46;96106.41;;;7.98;43.32
47080;BME280;33067;49.296;14.470;2024-03-02T06:34:12;96113.80;;;8.19;43.42
47080;BME280;33067;49.296;14.470;2024-03-02T06:36:39;96111.71;;;8.09;43.37
47080;BME280;33067;49.296;14.470;2024-03-02T06:39:03;96113.26;;;8.02;43.57
47080;BME280;33067;49.296;14.470;2024-03-02T06:41:28;96116.48;;;7.92;43.34
47080;BME280;33067;49.296;14.470;2024-03-02T06:43:54;96121.60;;;7.63;43.35
47080;BME280;33067;49.296;14.470;2024-03-02T06:46:19;96122.73;;;7.69;43.81
47080;BME280;33067;49.296;14.470;2024-03-02T06:48:45;96124.37;;;8.03;43.77
47080;BME280;33067;49.296;14.470;2024-03-02T06:51:11;96126.50;;;8.17;43.81
47080;BME280;33067;49.296;14.470;2024-03-02T06:53:36;96128.90;;;7.82;44.22
47080;BME280;33067;49.296;14.470;2024-03-02T06:56:02;96133.72;;;8.10;43.40
47080;BME280;33067;49.296;14.470;2024-03-02T06:58:27;96141.41;;;7.68;43.98
47080;BME280;33067;49.296;14.470;2024-03-02T07:00:53;96142.52;;;7.88;44.32
47080;BME280;33067;49.296;14.470;2024-03-02T07:03:18;96144.19;;;7.77;44.88
47080;BME280;33067;49.296;14.470;2024-03-02T07:05:43;96144.46;;;7.73;45.14
47080;BME280;33067;49.296;14.470;2024-03-02T07:08:09;96147.24;;;7.69;44.99
47080;BME280;33067;49.296;14.470;2024-03-02T07:10:34;96143.82;;;8.13;45.31
47080;BME280;33067;49.296;14.470;2024-03-02T07:13:00;96148.18;;;7.96;45.53
47080;BME280;33067;49.296;14.470;2024-03-02T07:15:25;96151.63;;;8.16;45.46
47080;BME280;33067;49.296;14.470;2024-03-02T07:17:51;96152.55;;;8.53;45.39
47080;BME280;33067;49.296;14.470;2024-03-02T07:20:16;96157.75;;;8.50;45.37
47080;BME280;33067;49.296;14.470;2024-03-02T07:22:42;96156.08;;;8.57;45.34
47080;BME280;33067;49.296;14.470;2024-03-02T07:25:07;96157.86;;;8.58;45.53
47080;BME280;33067;49.296;14.470;2024-03-02T07:27:32;96159.76;;;8.60;45.60
47080;BME280;33067;49.296;14.470;2024-03-02T07:29:58;96162.87;;;8.42;45.20
47080;BME280;33067;49.296;14.470;2024-03-02T07:32:23;96160.12;;;8.44;45.58
47080;BME280;33067;49.296;14.470;2024-03-02T07:34:48;96157.67;;;8.08;46.25
47080;BME280;33067;49.296;14.470;2024-03-02T07:37:13;96151.83;;;8.14;47.36
47080;BME280;33067;49.296;14.470;2024-03-02T07:39:39;96149.52;;;7.91;47.92
47080;BME280;33067;49.296;14.470;2024-03-02T07:42:05;96149.76;;;8.24;48.43
47080;BME280;33067;49.296;14.470;2024-03-02T07:44:30;96151.56;;;7.92;48.12
47080;BME280;33067;49.296;14.470;2024-03-02T07:46:56;96155.89;;;7.87;48.52
47080;BME280;33067;49.296;14.470;2024-03-02T07:49:22;96152.64;;;9.14;47.58
47080;BME280;33067;49.296;14.470;2024-03-02T07:51:47;96150.06;;;8.56;47.35
47080;BME280;33067;49.296;14.470;2024-03-02T07:54:12;96148.23;;;9.11;47.13
47080;BME280;33067;49.296;14.470;2024-03-02T07:56:38;96150.44;;;9.47;46.56
47080;BME280;33067;49.296;14.470;2024-03-02T07:59:04;96155.15;;;9.38;46.21
47080;BME280;33067;49.296;14.470;2024-03-02T08:01:29;96158.03;;;9.62;46.40
47080;BME280;33067;49.296;14.470;2024-03-02T08:03:55;96156.68;;;9.71;45.99
47080;BME280;33067;49.296;14.470;2024-03-02T08:06:20;96158.95;;;9.92;45.75
47080;BME280;33067;49.296;14.470;2024-03-02T08:08:46;96159.46;;;10.04;44.73
47080;BME280;33067;49.296;14.470;2024-03-02T08:11:11;96161.71;;;10.35;45.67
47080;BME280;33067;49.296;14.470;2024-03-02T08:13:37;96161.44;;;10.36;45.47
47080;BME280;33067;49.296;14.470;2024-03-02T08:16:03;96164.55;;;10.57;45.23
47080;BME280;33067;49.296;14.470;2024-03-02T08:18:27;96163.93;;;10.48;45.39
47080;BME280;33067;49.296;14.470;2024-03-02T08:20:53;96161.79;;;10.61;44.47
47080;BME280;33067;49.296;14.470;2024-03-02T08:23:18;96163.17;;;10.76;44.14
47080;BME280;33067;49.296;14.470;2024-03-02T08:25:43;96162.95;;;10.44;44.73
47080;BME280;33067;49.296;14.470;2024-03-02T08:28:08;96156.72;;;10.82;44.15
47080;BME280;33067;49.296;14.470;2024-03-02T08:30:34;96157.66;;;10.73;44.77
47080;BME280;33067;49.296;14.470;2024-03-02T08:33:00;96156.25;;;10.84;45.21
47080;BME280;33067;49.296;14.470;2024-03-02T08:35:24;96154.87;;;10.52;45.21
47080;BME280;33067;49.296;14.470;2024-03-02T08:37:50;96150.46;;;11.02;45.26
47080;BME280;33067;49.296;14.470;2024-03-02T08:40:15;96149.85;;;10.86;44.64
47080;BME280;33067;49.296;14.470;2024-03-02T08:42:40;96151.84;;;11.28;44.34
47080;BME280;33067;49.296;14.470;2024-03-02T08:45:07;96150.24;;;11.21;44.08
47080;BME280;33067;49.296;14.470;2024-03-02T08:47:32;96149.58;;;11.46;44.02
47080;BME280;33067;49.296;14.470;2024-03-02T08:49:57;96148.82;;;11.75;43.80
47080;BME280;33067;49.296;14.470;2024-03-02T08:52:22;96146.62;;;11.56;43.64
47080;BME280;33067;49.296;14.470;2024-03-02T08:54:47;96148.98;;;11.93;43.30
47080;BME280;33067;49.296;14.470;2024-03-02T08:57:13;96152.44;;;12.04;43.20
47080;BME280;33067;49.296;14.470;2024-03-02T08:59:39;96152.08;;;11.77;43.27
47080;BME280;33067;49.296;14.470;2024-03-02T09:02:04;96154.45;;;11.98;43.95
47080;BME280;33067;49.296;14.470;2024-03-02T09:04:29;96155.70;;;11.99;43.76
47080;BME280;33067;49.296;14.470;2024-03-02T09:06:54;96154.20;;;12.23;43.64
47080;BME280;33067;49.296;14.470;2024-03-02T09:09:19;96157.64;;;12.40;42.74
47080;BME280;33067;49.296;14.470;2024-03-02T09:11:46;96155.89;;;12.22;42.97
47080;BME280;33067;49.296;14.470;2024-03-02T09:14:11;96155.83;;;12.42;42.94
47080;BME280;33067;49.296;14.470;2024-03-02T09:16:36;96158.85;;;12.32;42.16
47080;BME280;33067;49.296;14.470;2024-03-02T09:19:01;96159.25;;;12.54;42.59
47080;BME280;33067;49.296;14.470;2024-03-02T09:21:26;96161.42;;;12.82;42.52
47080;BME280;33067;49.296;14.470;2024-03-02T09:23:51;96159.31;;;12.34;43.15
47080;BME280;33067;49.296;14.470;2024-03-02T09:26:17;96160.45;;;12.40;42.72
47080;BME280;33067;49.296;14.470;2024-03-02T09:28:43;96164.27;;;11.71;44.14
47080;BME280;33067;49.296;14.470;2024-03-02T09:31:08;96173.69;;;11.81;43.51
47080;BME280;33067;49.296;14.470;2024-03-02T09:33:34;96177.58;;;11.96;43.09
47080;BME280;33067;49.296;14.470;2024-03-02T09:35:59;96179.10;;;12.00;42.94
47080;BME280;33067;49.296;14.470;2024-03-02T09:38:24;96182.76;;;10.42;46.39
47080;BME280;33067;49.296;14.470;2024-03-02T09:40:50;96186.49;;;10.82;45.28
47080;BME280;33067;49.296;14.470;2024-03-02T09:43:15;96188.49;;;9.91;47.42
47080;BME280;33067;49.296;14.470;2024-03-02T09:45:41;96185.96;;;9.97;48.10
47080;BME280;33067;49.296;14.470;2024-03-02T09:48:07;96184.75;;;9.78;47.41
47080;BME280;33067;49.296;14.470;2024-03-02T09:50:32;96181.34;;;10.71;46.73
47080;BME280;33067;49.296;14.470;2024-03-02T09:52:58;96176.58;;;11.38;45.97
47080;BME280;33067;49.296;14.470;2024-03-02T09:55:23;96176.06;;;11.29;45.26
47080;BME280;33067;49.296;14.470;2024-03-02T09:57:49;96173.60;;;11.06;45.78
47080;BME280;33067;49.296;14.470;2024-03-02T10:00:15;96168.36;;;11.38;43.89
47080;BME280;33067;49.296;14.470;2024-03-02T10:02:40;96165.03;;;10.97;44.77
47080;BME280;33067;49.296;14.470;2024-03-02T10:05:05;96166.02;;;11.60;44.79
47080;BME280;33067;49.296;14.470;2024-03-02T10:07:30;96160.53;;;11.53;44.84
47080;BME280;33067;49.296;14.470;2024-03-02T10:09:56;96158.88;;;11.69;44.69
47080;BME280;33067;49.296;14.470;2024-03-02T10:12:22;96155.91;;;11.92;44.64
47080;BME280;33067;49.296;14.470;2024-03-02T10:14:47;96154.21;;;11.49;44.62
47080;BME280;33067;49.296;14.470;2024-03-02T10:17:13;96151.92;;;12.16;44.18
47080;BME280;33067;49.296;14.470;2024-03-02T10:19:39;96151.48;;;11.91;43.55
47080;BME280;33067;49.296;14.470;2024-03-02T10:22:05;96152.68;;;11.50;44.68
47080;BME280;33067;49.296;14.470;2024-03-02T10:24:36;96154.52;;;11.46;44.85
47080;BME280;33067;49.296;14.470;2024-03-02T10:26:54;96158.21;;;11.39;45.18
47080;BME280;33067;49.296;14.470;2024-03-02T10:29:20;96158.50;;;12.03;44.14
47080;BME280;33067;49.296;14.470;2024-03-02T10:31:46;96158.40;;;12.21;43.57
47080;BME280;33067;49.296;14.470;2024-03-02T10:34:11;96154.97;;;12.43;42.93
47080;BME280;33067;49.296;14.470;2024-03-02T10:36:37;96150.30;;;12.09;44.01
47080;BME280;33067;49.296;14.470;2024-03-02T10:39:02;96148.14;;;11.98;43.50
47080;BME280;33067;49.296;14.470;2024-03-02T10:41:27;96146.14;;;11.90;44.05
47080;BME280;33067;49.296;14.470;2024-03-02T10:43:53;96150.17;;;12.59;42.17
47080;BME280;33067;49.296;14.470;2024-03-02T10:46:19;96147.13;;;11.79;43.93
47080;BME280;33067;49.296;14.470;2024-03-02T10:48:45;96147.19;;;11.99;43.79
47080;BME280;33067;49.296;14.470;2024-03-02T10:51:09;96145.88;;;12.00;42.95
47080;BME280;33067;49.296;14.470;2024-03-02T10:53:34;96145.71;;;11.82;43.97
47080;BME280;33067;49.296;14.470;2024-03-02T10:56:00;96140.09;;;12.02;44.09
47080;BME280;33067;49.296;14.470;2024-03-02T10:58:31;96138.11;;;11.94;43.92
47080;BME280;33067;49.296;14.470;2024-03-02T11:00:50;96139.27;;;12.15;43.05
47080;BME280;33067;49.296;14.470;2024-03-02T11:03:16;96134.38;;;11.80;43.89
47080;BME280;33067;49.296;14.470;2024-03-02T11:05:44;96135.07;;;11.44;44.86
47080;BME280;33067;49.296;14.470;2024-03-02T11:08:08;96132.34;;;11.92;43.55
47080;BME280;33067;49.296;14.470;2024-03-02T11:10:36;96132.49;;;12.32;43.08
47080;BME280;33067;49.296;14.470;2024-03-02T11:13:01;96125.37;;;11.86;43.89
47080;BME280;33067;49.296;14.470;2024-03-02T11:15:25;96123.95;;;12.31;43.45
47080;BME280;33067;49.296;14.470;2024-03-02T11:17:49;96116.92;;;11.87;43.96
47080;BME280;33067;49.296;14.470;2024-03-02T11:20:15;96115.96;;;12.18;43.57
47080;BME280;33067;49.296;14.470;2024-03-02T11:22:40;96110.93;;;12.90;43.00
47080;BME280;33067;49.296;14.470;2024-03-02T11:25:06;96108.01;;;12.58;42.46
47080;BME280;33067;49.296;14.470;2024-03-02T11:29:55;96104.37;;;11.58;44.36
47080;BME280;33067;49.296;14.470;2024-03-02T11:32:21;96102.80;;;11.92;43.74
47080;BME280;33067;49.296;14.470;2024-03-02T11:34:48;96108.03;;;11.75;44.36
47080;BME280;33067;49.296;14.470;2024-03-02T11:37:12;96109.36;;;12.24;43.13
47080;BME280;33067;49.296;14.470;2024-03-02T11:39:37;96108.21;;;12.36;43.38
47080;BME280;33067;49.296;14.470;2024-03-02T11:42:05;96103.07;;;11.53;44.78
47080;BME280;33067;49.296;14.470;2024-03-02T11:44:27;96107.66;;;12.40;43.30
47080;BME280;33067;49.296;14.470;2024-03-02T11:46:53;96108.52;;;10.89;45.14
47080;BME280;33067;49.296;14.470;2024-03-02T11:51:50;96101.41;;;11.51;45.21
47080;BME280;33067;49.296;14.470;2024-03-02T11:54:09;96103.24;;;11.67;44.11
47080;BME280;33067;49.296;14.470;2024-03-02T11:56:34;96104.51;;;11.16;44.80
47080;BME280;33067;49.296;14.470;2024-03-02T11:59:00;96100.69;;;11.06;45.58
47080;BME280;33067;49.296;14.470;2024-03-02T12:01:24;96097.12;;;11.36;45.67
47080;BME280;33067;49.296;14.470;2024-03-02T12:03:51;96092.49;;;10.91;46.34
47080;BME280;33067;49.296;14.470;2024-03-02T12:06:17;96095.92;;;11.36;44.87
47080;BME280;33067;49.296;14.470;2024-03-02T12:08:42;96093.33;;;11.65;44.27
47080;BME280;33067;49.296;14.470;2024-03-02T12:11:07;96086.39;;;11.43;44.53
47080;BME280;33067;49.296;14.470;2024-03-02T12:13:32;96083.87;;;11.95;44.37
47080;BME280;33067;49.296;14.470;2024-03-02T12:15:57;96086.21;;;11.94;43.63
47080;BME280;33067;49.296;14.470;2024-03-02T12:18:23;96080.75;;;12.26;42.84
47080;BME280;33067;49.296;14.470;2024-03-02T12:20:50;96076.32;;;12.02;43.25
47080;BME280;33067;49.296;14.470;2024-03-02T12:23:14;96074.21;;;12.59;42.42
47080;BME280;33067;49.296;14.470;2024-03-02T12:25:39;96070.45;;;12.37;42.59
47080;BME280;33067;49.296;14.470;2024-03-02T12:28:05;96066.80;;;12.85;42.63
47080;BME280;33067;49.296;14.470;2024-03-02T12:30:30;96060.66;;;12.43;43.01
47080;BME280;33067;49.296;14.470;2024-03-02T12:32:55;96063.21;;;12.16;43.10
47080;BME280;33067;49.296;14.470;2024-03-02T12:35:21;96073.27;;;12.03;43.21
47080;BME280;33067;49.296;14.470;2024-03-02T12:37:48;96068.79;;;11.96;43.57
47080;BME280;33067;49.296;14.470;2024-03-02T12:40:12;96061.72;;;12.48;42.83
47080;BME280;33067;49.296;14.470;2024-03-02T12:42:37;96059.41;;;12.39;42.76
47080;BME280;33067;49.296;14.470;2024-03-02T12:45:03;96056.22;;;12.36;43.25
47080;BME280;33067;49.296;14.470;2024-03-02T12:47:28;96055.44;;;12.05;43.85
47080;BME280;33067;49.296;14.470;2024-03-02T12:49:54;96051.39;;;12.16;44.42
47080;BME280;33067;49.296;14.470;2024-03-02T12:52:19;96051.42;;;12.36;43.73